SXS8SD LTAI-EETN
Flight info
| Callsign | SXS8SD |
|---|---|
| Flight time | N/A |
| Altitude | 39000 |
| Route | EKNUD1K/18L EKNUD UQ26 TUDBU UPAMA BADOR ABULI KELEL LOGDA SUTIK SUWGI M857 BOKSU ROLAV SOKVA KEMET KEME1L |
| Aircraft | B38M/H-NONE/C |
Departure
| Time | 2026-05-05 15:31 |
|---|---|
| Airport | Antalya International Airport (LTAI) |
Arrival
| Time | N/A |
|---|---|
| Airport | Lennart Meri Tallinn Airport (EETN) |
| Time | Latitude | Longitude | Altitude | Speed | Heading |
|---|---|---|---|---|---|
| 2026-05-05 15:08 | 36.89776 | 30.80241 | 183 ft | 0 kts | 284° |
| 2026-05-05 15:21 | 36.89775 | 30.80248 | 183 ft | 3 kts | 284° |
| 2026-05-05 15:21 | 36.89771 | 30.80271 | 183 ft | 3 kts | 284° |
| 2026-05-05 15:21 | 36.89767 | 30.80291 | 183 ft | 3 kts | 284° |
| 2026-05-05 15:21 | 36.89767 | 30.80313 | 183 ft | 3 kts | 227° |
| 2026-05-05 15:22 | 36.89775 | 30.80322 | 183 ft | 0 kts | 192° |
| 2026-05-05 15:23 | 36.89767 | 30.80320 | 183 ft | 3 kts | 188° |
| 2026-05-05 15:24 | 36.89740 | 30.80315 | 183 ft | 1 kts | 188° |
| 2026-05-05 15:24 | 36.89720 | 30.80313 | 183 ft | 5 kts | 183° |
| 2026-05-05 15:24 | 36.89673 | 30.80310 | 183 ft | 8 kts | 182° |
| 2026-05-05 15:24 | 36.89621 | 30.80320 | 183 ft | 8 kts | 159° |
| 2026-05-05 15:25 | 36.89589 | 30.80366 | 182 ft | 7 kts | 111° |
| 2026-05-05 15:25 | 36.89583 | 30.80424 | 182 ft | 8 kts | 95° |
| 2026-05-05 15:25 | 36.89576 | 30.80510 | 182 ft | 12 kts | 96° |
| 2026-05-05 15:25 | 36.89564 | 30.80623 | 182 ft | 13 kts | 90° |
| 2026-05-05 15:26 | 36.89596 | 30.80701 | 182 ft | 6 kts | 29° |
| 2026-05-05 15:26 | 36.89624 | 30.80704 | 182 ft | 5 kts | 2° |
| 2026-05-05 15:26 | 36.89679 | 30.80697 | 183 ft | 7 kts | 1° |
| 2026-05-05 15:26 | 36.89726 | 30.80703 | 183 ft | 8 kts | 8° |
| 2026-05-05 15:27 | 36.89811 | 30.80716 | 199 ft | 18 kts | 7° |
| 2026-05-05 15:27 | 36.89973 | 30.80741 | 198 ft | 29 kts | 6° |
| 2026-05-05 15:27 | 36.90180 | 30.80771 | 198 ft | 30 kts | 7° |
| 2026-05-05 15:27 | 36.90391 | 30.80805 | 198 ft | 29 kts | 6° |
| 2026-05-05 15:28 | 36.90586 | 30.80829 | 200 ft | 29 kts | 5° |
| 2026-05-05 15:28 | 36.90790 | 30.80852 | 194 ft | 29 kts | 5° |
| 2026-05-05 15:28 | 36.90987 | 30.80879 | 201 ft | 26 kts | 6° |
| 2026-05-05 15:28 | 36.91095 | 30.80901 | 191 ft | 11 kts | 21° |
| 2026-05-05 15:29 | 36.91128 | 30.80925 | 198 ft | 1 kts | 64° |
| 2026-05-05 15:29 | 36.91146 | 30.80963 | 196 ft | 17 kts | 45° |
| 2026-05-05 15:29 | 36.91252 | 30.81086 | 194 ft | 16 kts | 102° |
| 2026-05-05 15:29 | 36.91203 | 30.81147 | 200 ft | 8 kts | 160° |
| 2026-05-05 15:30 | 36.90996 | 30.81136 | 196 ft | 69 kts | 185° |
| 2026-05-05 15:30 | 36.90250 | 30.81031 | 190 ft | 139 kts | 181° |
| 2026-05-05 15:30 | 36.89157 | 30.80945 | 377 ft | 172 kts | 178° |
| 2026-05-05 15:30 | 36.87905 | 30.81073 | 762 ft | 193 kts | 162° |
| 2026-05-05 15:31 | 36.86598 | 30.81528 | 1218 ft | 193 kts | 180° |
| 2026-05-05 15:31 | 36.85087 | 30.81133 | 903 ft | 218 kts | 173° |
| 2026-05-05 15:31 | 36.83923 | 30.81647 | 2707 ft | 171 kts | 144° |